sensor_id;sensor_type;location;lat;lon;timestamp;temperature;humidity
41469;DHT22;27206;47.032;15.484;2023-10-08T00:00:49;14.30;99.90
41469;DHT22;27206;47.032;15.484;2023-10-08T00:03:16;14.30;99.90
41469;DHT22;27206;47.032;15.484;2023-10-08T00:05:43;14.10;99.90
41469;DHT22;27206;47.032;15.484;2023-10-08T00:08:11;14.00;99.90
41469;DHT22;27206;47.032;15.484;2023-10-08T00:10:38;13.80;99.90
41469;DHT22;27206;47.032;15.484;2023-10-08T00:13:07;13.90;99.90
41469;DHT22;27206;47.032;15.484;2023-10-08T00:15:35;14.00;99.90
41469;DHT22;27206;47.032;15.484;2023-10-08T00:18:05;14.00;99.90
41469;DHT22;27206;47.032;15.484;2023-10-08T00:20:36;14.00;99.90
41469;DHT22;27206;47.032;15.484;2023-10-08T00:23:12;14.00;99.90
41469;DHT22;27206;47.032;15.484;2023-10-08T00:25:38;13.90;99.90
41469;DHT22;27206;47.032;15.484;2023-10-08T00:28:09;13.80;99.90
41469;DHT22;27206;47.032;15.484;2023-10-08T00:30:42;13.80;99.90
41469;DHT22;27206;47.032;15.484;2023-10-08T00:33:08;13.80;99.90
41469;DHT22;27206;47.032;15.484;2023-10-08T00:35:38;13.80;99.90
41469;DHT22;27206;47.032;15.484;2023-10-08T00:38:05;13.80;99.90
41469;DHT22;27206;47.032;15.484;2023-10-08T00:40:39;13.70;99.90
41469;DHT22;27206;47.032;15.484;2023-10-08T00:43:05;13.60;99.90
41469;DHT22;27206;47.032;15.484;2023-10-08T00:45:39;13.60;99.90
41469;DHT22;27206;47.032;15.484;2023-10-08T00:48:11;13.60;99.90
41469;DHT22;27206;47.032;15.484;2023-10-08T00:50:42;13.50;99.90
41469;DHT22;27206;47.032;15.484;2023-10-08T00:53:09;13.30;99.90
41469;DHT22;27206;47.032;15.484;2023-10-08T00:55:47;13.20;99.90
41469;DHT22;27206;47.032;15.484;2023-10-08T00:58:19;13.20;99.90
41469;DHT22;27206;47.032;15.484;2023-10-08T01:00:54;13.30;99.90
41469;DHT22;27206;47.032;15.484;2023-10-08T01:03:26;13.40;99.90
41469;DHT22;27206;47.032;15.484;2023-10-08T01:05:54;13.30;99.90
41469;DHT22;27206;47.032;15.484;2023-10-08T01:08:19;13.20;99.90
41469;DHT22;27206;47.032;15.484;2023-10-08T01:11:37;13.20;99.90
41469;DHT22;27206;47.032;15.484;2023-10-08T01:14:11;13.30;99.90
41469;DHT22;27206;47.032;15.484;2023-10-08T01:16:37;13.20;99.90
41469;DHT22;27206;47.032;15.484;2023-10-08T01:19:04;13.20;99.90
41469;DHT22;27206;47.032;15.484;2023-10-08T01:21:37;13.10;99.90
41469;DHT22;27206;47.032;15.484;2023-10-08T01:24:06;13.10;99.90
41469;DHT22;27206;47.032;15.484;2023-10-08T01:26:35;13.00;99.90
41469;DHT22;27206;47.032;15.484;2023-10-08T01:29:08;13.00;99.90
41469;DHT22;27206;47.032;15.484;2023-10-08T01:31:35;13.10;99.90
41469;DHT22;27206;47.032;15.484;2023-10-08T01:34:02;13.10;99.90
41469;DHT22;27206;47.032;15.484;2023-10-08T01:36:30;12.90;99.90
41469;DHT22;27206;47.032;15.484;2023-10-08T01:38:57;13.00;99.90
41469;DHT22;27206;47.032;15.484;2023-10-08T01:41:23;13.00;99.90
41469;DHT22;27206;47.032;15.484;2023-10-08T01:43:56;13.00;99.90
41469;DHT22;27206;47.032;15.484;2023-10-08T01:46:25;12.90;99.90
41469;DHT22;27206;47.032;15.484;2023-10-08T01:48:52;12.80;99.90
41469;DHT22;27206;47.032;15.484;2023-10-08T01:51:30;12.90;99.90
41469;DHT22;27206;47.032;15.484;2023-10-08T01:54:13;12.90;99.90
41469;DHT22;27206;47.032;15.484;2023-10-08T01:56:42;12.90;99.90
41469;DHT22;27206;47.032;15.484;2023-10-08T01:59:09;12.70;99.90
41469;DHT22;27206;47.032;15.484;2023-10-08T02:01:35;12.60;99.90
41469;DHT22;27206;47.032;15.484;2023-10-08T02:04:01;12.70;99.90
41469;DHT22;27206;47.032;15.484;2023-10-08T02:06:27;12.70;99.90
41469;DHT22;27206;47.032;15.484;2023-10-08T02:08:53;12.40;99.90
41469;DHT22;27206;47.032;15.484;2023-10-08T02:11:18;12.50;99.90
41469;DHT22;27206;47.032;15.484;2023-10-08T02:13:45;12.50;99.90
41469;DHT22;27206;47.032;15.484;2023-10-08T02:16:18;12.60;99.90
41469;DHT22;27206;47.032;15.484;2023-10-08T02:18:44;12.60;99.90
41469;DHT22;27206;47.032;15.484;2023-10-08T02:21:10;12.40;99.90
41469;DHT22;27206;47.032;15.484;2023-10-08T02:23:36;12.40;99.90
41469;DHT22;27206;47.032;15.484;2023-10-08T02:26:02;12.30;99.90
41469;DHT22;27206;47.032;15.484;2023-10-08T02:28:28;12.30;99.90
41469;DHT22;27206;47.032;15.484;2023-10-08T02:30:54;12.30;99.90
41469;DHT22;27206;47.032;15.484;2023-10-08T02:33:19;12.30;99.90
41469;DHT22;27206;47.032;15.484;2023-10-08T02:35:46;12.30;99.90
41469;DHT22;27206;47.032;15.484;2023-10-08T02:38:13;12.30;99.90
41469;DHT22;27206;47.032;15.484;2023-10-08T02:40:42;12.30;99.90
41469;DHT22;27206;47.032;15.484;2023-10-08T02:43:13;12.30;99.90
41469;DHT22;27206;47.032;15.484;2023-10-08T02:45:43;12.30;99.90
41469;DHT22;27206;47.032;15.484;2023-10-08T02:48:14;12.30;99.90
41469;DHT22;27206;47.032;15.484;2023-10-08T02:50:44;12.30;99.90
41469;DHT22;27206;47.032;15.484;2023-10-08T02:53:10;12.20;99.90
41469;DHT22;27206;47.032;15.484;2023-10-08T02:55:40;12.20;99.90
41469;DHT22;27206;47.032;15.484;2023-10-08T02:58:15;12.00;99.90
41469;DHT22;27206;47.032;15.484;2023-10-08T03:00:45;11.90;99.90
41469;DHT22;27206;47.032;15.484;2023-10-08T03:03:17;12.00;99.90
41469;DHT22;27206;47.032;15.484;2023-10-08T03:05:48;12.10;99.90
41469;DHT22;27206;47.032;15.484;2023-10-08T03:08:15;12.10;99.90
41469;DHT22;27206;47.032;15.484;2023-10-08T03:10:45;12.00;99.90
41469;DHT22;27206;47.032;15.484;2023-10-08T03:13:11;12.00;99.90
41469;DHT22;27206;47.032;15.484;2023-10-08T03:15:40;12.00;99.90
41469;DHT22;27206;47.032;15.484;2023-10-08T03:18:11;12.00;99.90
41469;DHT22;27206;47.032;15.484;2023-10-08T03:20:42;12.10;99.90
41469;DHT22;27206;47.032;15.484;2023-10-08T03:23:10;12.10;99.90
41469;DHT22;27206;47.032;15.484;2023-10-08T03:25:53;12.10;99.90
41469;DHT22;27206;47.032;15.484;2023-10-08T03:28:43;12.10;99.90
41469;DHT22;27206;47.032;15.484;2023-10-08T03:31:08;12.10;99.90
41469;DHT22;27206;47.032;15.484;2023-10-08T03:33:42;12.10;99.90
41469;DHT22;27206;47.032;15.484;2023-10-08T03:36:09;12.20;99.90
41469;DHT22;27206;47.032;15.484;2023-10-08T03:38:39;12.30;99.90
41469;DHT22;27206;47.032;15.484;2023-10-08T03:41:25;12.30;99.90
41469;DHT22;27206;47.032;15.484;2023-10-08T03:43:55;12.20;99.90
41469;DHT22;27206;47.032;15.484;2023-10-08T03:46:29;12.20;99.90
41469;DHT22;27206;47.032;15.484;2023-10-08T03:48:55;12.30;99.90
41469;DHT22;27206;47.032;15.484;2023-10-08T03:51:23;12.20;99.90
41469;DHT22;27206;47.032;15.484;2023-10-08T03:53:53;12.20;99.90
41469;DHT22;27206;47.032;15.484;2023-10-08T03:56:42;12.30;99.90
41469;DHT22;27206;47.032;15.484;2023-10-08T03:59:20;12.20;99.90
41469;DHT22;27206;47.032;15.484;2023-10-08T04:02:01;12.20;99.90
41469;DHT22;27206;47.032;15.484;2023-10-08T04:04:41;12.10;99.90
41469;DHT22;27206;47.032;15.484;2023-10-08T04:07:20;12.20;99.90
41469;DHT22;27206;47.032;15.484;2023-10-08T04:09:59;12.10;99.90
41469;DHT22;27206;47.032;15.484;2023-10-08T04:12:50;12.10;99.90
41469;DHT22;27206;47.032;15.484;2023-10-08T04:15:18;12.10;99.90
41469;DHT22;27206;47.032;15.484;2023-10-08T04:17:45;12.20;99.90
41469;DHT22;27206;47.032;15.484;2023-10-08T04:20:17;12.10;99.90
41469;DHT22;27206;47.032;15.484;2023-10-08T04:22:59;12.10;99.90
41469;DHT22;27206;47.032;15.484;2023-10-08T04:25:32;12.10;99.90
41469;DHT22;27206;47.032;15.484;2023-10-08T04:27:59;12.00;99.90
41469;DHT22;27206;47.032;15.484;2023-10-08T04:30:26;12.10;99.90
41469;DHT22;27206;47.032;15.484;2023-10-08T04:33:03;12.00;99.90
41469;DHT22;27206;47.032;15.484;2023-10-08T04:35:35;12.10;99.90
41469;DHT22;27206;47.032;15.484;2023-10-08T04:38:28;12.10;99.90
41469;DHT22;27206;47.032;15.484;2023-10-08T04:41:02;12.20;99.90
41469;DHT22;27206;47.032;15.484;2023-10-08T04:43:36;12.30;99.90
41469;DHT22;27206;47.032;15.484;2023-10-08T04:46:04;12.30;99.90
41469;DHT22;27206;47.032;15.484;2023-10-08T04:48:48;12.40;99.90
41469;DHT22;27206;47.032;15.484;2023-10-08T04:51:17;12.40;99.90
41469;DHT22;27206;47.032;15.484;2023-10-08T04:53:43;12.40;99.90
41469;DHT22;27206;47.032;15.484;2023-10-08T04:56:12;12.50;99.90
41469;DHT22;27206;47.032;15.484;2023-10-08T04:58:45;12.50;99.90
41469;DHT22;27206;47.032;15.484;2023-10-08T05:01:17;12.40;99.90
41469;DHT22;27206;47.032;15.484;2023-10-08T05:03:48;12.30;99.90
41469;DHT22;27206;47.032;15.484;2023-10-08T05:06:24;12.10;99.90
41469;DHT22;27206;47.032;15.484;2023-10-08T05:08:59;12.20;99.90
41469;DHT22;27206;47.032;15.484;2023-10-08T05:11:35;12.20;99.90
41469;DHT22;27206;47.032;15.484;2023-10-08T05:14:22;12.20;99.90
41469;DHT22;27206;47.032;15.484;2023-10-08T05:17:00;12.30;99.90
41469;DHT22;27206;47.032;15.484;2023-10-08T05:19:29;12.30;99.90
41469;DHT22;27206;47.032;15.484;2023-10-08T05:22:17;12.40;99.90
41469;DHT22;27206;47.032;15.484;2023-10-08T05:24:55;12.40;99.90
41469;DHT22;27206;47.032;15.484;2023-10-08T05:27:56;12.40;99.90
41469;DHT22;27206;47.032;15.484;2023-10-08T05:30:25;12.40;99.90
41469;DHT22;27206;47.032;15.484;2023-10-08T05:32:52;12.50;99.90
41469;DHT22;27206;47.032;15.484;2023-10-08T05:35:37;12.50;99.90
41469;DHT22;27206;47.032;15.484;2023-10-08T05:38:07;12.50;99.90
41469;DHT22;27206;47.032;15.484;2023-10-08T05:40:48;12.50;99.90
41469;DHT22;27206;47.032;15.484;2023-10-08T05:43:35;12.50;99.90
41469;DHT22;27206;47.032;15.484;2023-10-08T05:46:09;12.40;99.90
41469;DHT22;27206;47.032;15.484;2023-10-08T05:48:59;12.40;99.90
41469;DHT22;27206;47.032;15.484;2023-10-08T05:51:31;12.50;99.90
41469;DHT22;27206;47.032;15.484;2023-10-08T05:54:15;12.50;99.90
41469;DHT22;27206;47.032;15.484;2023-10-08T05:57:04;12.70;99.90
41469;DHT22;27206;47.032;15.484;2023-10-08T05:59:37;12.70;99.90
41469;DHT22;27206;47.032;15.484;2023-10-08T06:02:40;12.70;99.90
41469;DHT22;27206;47.032;15.484;2023-10-08T06:05:10;12.70;99.90
41469;DHT22;27206;47.032;15.484;2023-10-08T06:10:31;12.80;99.90
41469;DHT22;27206;47.032;15.484;2023-10-08T06:13:00;12.80;99.90
41469;DHT22;27206;47.032;15.484;2023-10-08T06:15:39;12.70;99.90
41469;DHT22;27206;47.032;15.484;2023-10-08T06:18:18;12.80;99.90
41469;DHT22;27206;47.032;15.484;2023-10-08T06:20:47;12.80;99.90
41469;DHT22;27206;47.032;15.484;2023-10-08T06:23:15;12.90;99.90
41469;DHT22;27206;47.032;15.484;2023-10-08T06:25:44;12.80;99.90
41469;DHT22;27206;47.032;15.484;2023-10-08T06:28:19;12.90;99.90
41469;DHT22;27206;47.032;15.484;2023-10-08T06:30:50;12.90;99.90
41469;DHT22;27206;47.032;15.484;2023-10-08T06:33:20;13.00;99.90
41469;DHT22;27206;47.032;15.484;2023-10-08T06:35:46;13.00;99.90
41469;DHT22;27206;47.032;15.484;2023-10-08T06:38:29;12.80;99.90
41469;DHT22;27206;47.032;15.484;2023-10-08T06:41:01;13.00;99.90
41469;DHT22;27206;47.032;15.484;2023-10-08T06:43:34;12.90;99.90
41469;DHT22;27206;47.032;15.484;2023-10-08T06:46:02;13.00;99.90
41469;DHT22;27206;47.032;15.484;2023-10-08T06:48:29;13.10;99.90
41469;DHT22;27206;47.032;15.484;2023-10-08T06:50:55;13.10;99.90
41469;DHT22;27206;47.032;15.484;2023-10-08T06:53:24;13.20;99.90
41469;DHT22;27206;47.032;15.484;2023-10-08T06:55:50;13.20;99.90
41469;DHT22;27206;47.032;15.484;2023-10-08T06:58:23;13.20;99.90
41469;DHT22;27206;47.032;15.484;2023-10-08T07:00:49;13.40;99.90
41469;DHT22;27206;47.032;15.484;2023-10-08T07:03:16;13.30;99.90
41469;DHT22;27206;47.032;15.484;2023-10-08T07:05:46;13.30;99.90
41469;DHT22;27206;47.032;15.484;2023-10-08T07:08:26;13.40;99.90
41469;DHT22;27206;47.032;15.484;2023-10-08T07:10:53;13.40;99.90
41469;DHT22;27206;47.032;15.484;2023-10-08T07:13:20;13.50;99.90
41469;DHT22;27206;47.032;15.484;2023-10-08T07:15:50;13.40;99.90
41469;DHT22;27206;47.032;15.484;2023-10-08T07:18:16;13.50;99.90
41469;DHT22;27206;47.032;15.484;2023-10-08T07:20:51;13.60;99.90
41469;DHT22;27206;47.032;15.484;2023-10-08T07:23:20;13.60;99.90
41469;DHT22;27206;47.032;15.484;2023-10-08T07:25:57;13.60;99.90
41469;DHT22;27206;47.032;15.484;2023-10-08T07:28:42;13.60;99.90
41469;DHT22;27206;47.032;15.484;2023-10-08T07:33:47;13.80;99.90
41469;DHT22;27206;47.032;15.484;2023-10-08T07:36:13;13.90;99.90
41469;DHT22;27206;47.032;15.484;2023-10-08T07:38:44;13.90;99.90
41469;DHT22;27206;47.032;15.484;2023-10-08T07:41:13;14.00;99.90
41469;DHT22;27206;47.032;15.484;2023-10-08T07:43:43;14.10;99.90
41469;DHT22;27206;47.032;15.484;2023-10-08T07:46:10;14.10;99.90
41469;DHT22;27206;47.032;15.484;2023-10-08T07:48:36;14.10;99.90
41469;DHT22;27206;47.032;15.484;2023-10-08T07:51:08;14.20;99.90
41469;DHT22;27206;47.032;15.484;2023-10-08T07:53:33;14.20;99.90
41469;DHT22;27206;47.032;15.484;2023-10-08T07:56:08;14.10;99.90
41469;DHT22;27206;47.032;15.484;2023-10-08T07:58:34;14.20;99.90
41469;DHT22;27206;47.032;15.484;2023-10-08T08:01:07;14.30;99.90
41469;DHT22;27206;47.032;15.484;2023-10-08T08:03:35;14.30;99.90
41469;DHT22;27206;47.032;15.484;2023-10-08T08:06:06;14.30;99.90
41469;DHT22;27206;47.032;15.484;2023-10-08T08:08:38;14.40;99.90
41469;DHT22;27206;47.032;15.484;2023-10-08T08:11:08;14.30;99.90
41469;DHT22;27206;47.032;15.484;2023-10-08T08:13:43;14.40;99.90
41469;DHT22;27206;47.032;15.484;2023-10-08T08:16:11;14.40;99.90
41469;DHT22;27206;47.032;15.484;2023-10-08T08:18:50;14.60;99.90
41469;DHT22;27206;47.032;15.484;2023-10-08T08:21:18;14.70;99.90
41469;DHT22;27206;47.032;15.484;2023-10-08T08:23:48;14.70;99.90
41469;DHT22;27206;47.032;15.484;2023-10-08T08:26:18;14.80;99.90
41469;DHT22;27206;47.032;15.484;2023-10-08T08:29:02;14.80;99.90
41469;DHT22;27206;47.032;15.484;2023-10-08T08:31:31;14.90;99.90
41469;DHT22;27206;47.032;15.484;2023-10-08T08:33:58;14.90;99.90
41469;DHT22;27206;47.032;15.484;2023-10-08T08:36:35;15.00;99.90
41469;DHT22;27206;47.032;15.484;2023-10-08T08:39:04;15.10;99.90
41469;DHT22;27206;47.032;15.484;2023-10-08T08:41:30;15.10;99.90
41469;DHT22;27206;47.032;15.484;2023-10-08T08:43:56;15.10;99.90
41469;DHT22;27206;47.032;15.484;2023-10-08T08:46:35;15.20;99.90
41469;DHT22;27206;47.032;15.484;2023-10-08T08:49:06;15.20;99.90
41469;DHT22;27206;47.032;15.484;2023-10-08T08:51:37;15.20;99.90
41469;DHT22;27206;47.032;15.484;2023-10-08T08:54:05;15.30;99.90
41469;DHT22;27206;47.032;15.484;2023-10-08T08:56:38;15.40;99.90
41469;DHT22;27206;47.032;15.484;2023-10-08T08:59:05;15.40;99.90
41469;DHT22;27206;47.032;15.484;2023-10-08T09:01:32;15.60;99.90
41469;DHT22;27206;47.032;15.484;2023-10-08T09:04:05;15.60;99.90
41469;DHT22;27206;47.032;15.484;2023-10-08T09:06:35;15.70;99.90
41469;DHT22;27206;47.032;15.484;2023-10-08T09:09:03;15.80;99.90
41469;DHT22;27206;47.032;15.484;2023-10-08T09:11:51;15.90;99.90
41469;DHT22;27206;47.032;15.484;2023-10-08T09:14:23;16.00;99.90
41469;DHT22;27206;47.032;15.484;2023-10-08T09:16:52;16.10;99.90
41469;DHT22;27206;47.032;15.484;2023-10-08T09:19:18;16.20;99.90
41469;DHT22;27206;47.032;15.484;2023-10-08T09:24:30;16.40;99.90
41469;DHT22;27206;47.032;15.484;2023-10-08T09:26:56;16.50;99.90
41469;DHT22;27206;47.032;15.484;2023-10-08T09:29:23;16.60;99.90
41469;DHT22;27206;47.032;15.484;2023-10-08T09:31:56;16.60;99.90
41469;DHT22;27206;47.032;15.484;2023-10-08T09:34:26;16.80;99.90
41469;DHT22;27206;47.032;15.484;2023-10-08T09:36:53;16.90;99.90
41469;DHT22;27206;47.032;15.484;2023-10-08T09:39:21;17.00;97.80
41469;DHT22;27206;47.032;15.484;2023-10-08T09:41:53;17.10;99.90
41469;DHT22;27206;47.032;15.484;2023-10-08T09:44:19;17.20;97.70
41469;DHT22;27206;47.032;15.484;2023-10-08T09:46:50;17.30;96.20
41469;DHT22;27206;47.032;15.484;2023-10-08T09:49:22;17.50;97.70
41469;DHT22;27206;47.032;15.484;2023-10-08T09:51:50;17.70;99.90
41469;DHT22;27206;47.032;15.484;2023-10-08T09:54:25;17.80;98.70
41469;DHT22;27206;47.032;15.484;2023-10-08T09:56:58;18.00;98.30
41469;DHT22;27206;47.032;15.484;2023-10-08T09:59:27;18.00;92.20
41469;DHT22;27206;47.032;15.484;2023-10-08T10:01:54;18.00;86.10
41469;DHT22;27206;47.032;15.484;2023-10-08T10:04:25;18.00;85.10
41469;DHT22;27206;47.032;15.484;2023-10-08T10:06:51;18.10;84.20
41469;DHT22;27206;47.032;15.484;2023-10-08T10:09:22;18.30;89.80
41469;DHT22;27206;47.032;15.484;2023-10-08T10:11:50;18.40;88.70
41469;DHT22;27206;47.032;15.484;2023-10-08T10:14:17;18.50;79.30
41469;DHT22;27206;47.032;15.484;2023-10-08T10:16:43;18.50;79.30
41469;DHT22;27206;47.032;15.484;2023-10-08T10:19:17;18.70;79.50
41469;DHT22;27206;47.032;15.484;2023-10-08T10:21:46;18.70;77.90
41469;DHT22;27206;47.032;15.484;2023-10-08T10:24:35;18.80;85.70
41469;DHT22;27206;47.032;15.484;2023-10-08T10:27:13;18.90;82.00
41469;DHT22;27206;47.032;15.484;2023-10-08T10:29:43;19.00;75.50
41469;DHT22;27206;47.032;15.484;2023-10-08T10:32:14;19.00;75.50
41469;DHT22;27206;47.032;15.484;2023-10-08T10:34:43;19.20;81.00
41469;DHT22;27206;47.032;15.484;2023-10-08T10:37:09;19.30;81.40
41469;DHT22;27206;47.032;15.484;2023-10-08T10:39:51;19.30;76.50
41469;DHT22;27206;47.032;15.484;2023-10-08T10:42:18;19.40;83.30
41469;DHT22;27206;47.032;15.484;2023-10-08T10:44:48;19.50;78.00
41469;DHT22;27206;47.032;15.484;2023-10-08T10:47:19;19.60;78.70
41469;DHT22;27206;47.032;15.484;2023-10-08T10:49:51;19.80;76.20
41469;DHT22;27206;47.032;15.484;2023-10-08T10:52:19;20.10;83.40
41469;DHT22;27206;47.032;15.484;2023-10-08T10:55:03;20.30;84.20
41469;DHT22;27206;47.032;15.484;2023-10-08T10:57:52;20.40;77.20
41469;DHT22;27206;47.032;15.484;2023-10-08T11:00:22;20.60;71.20
41469;DHT22;27206;47.032;15.484;2023-10-08T11:02:58;20.50;64.50
41469;DHT22;27206;47.032;15.484;2023-10-08T11:05:53;20.80;64.80
41469;DHT22;27206;47.032;15.484;2023-10-08T11:08:21;21.00;57.90
41469;DHT22;27206;47.032;15.484;2023-10-08T11:10:49;21.10;49.60
41469;DHT22;27206;47.032;15.484;2023-10-08T11:13:18;21.10;42.90
41469;DHT22;27206;47.032;15.484;2023-10-08T11:15:46;21.30;42.60
41469;DHT22;27206;47.032;15.484;2023-10-08T11:18:21;21.50;48.60
41469;DHT22;27206;47.032;15.484;2023-10-08T11:20:48;21.60;29.50
41469;DHT22;27206;47.032;15.484;2023-10-08T11:23:41;21.70;12.80
41469;DHT22;27206;47.032;15.484;2023-10-08T11:26:07;21.80;1.00
41469;DHT22;27206;47.032;15.484;2023-10-08T11:28:35;21.90;1.00
41469;DHT22;27206;47.032;15.484;2023-10-08T11:31:04;21.90;1.00
41469;DHT22;27206;47.032;15.484;2023-10-08T11:33:37;21.90;1.00
41469;DHT22;27206;47.032;15.484;2023-10-08T11:36:05;22.00;1.00
41469;DHT22;27206;47.032;15.484;2023-10-08T11:38:44;22.10;1.00
41469;DHT22;27206;47.032;15.484;2023-10-08T11:41:15;22.20;1.00
41469;DHT22;27206;47.032;15.484;2023-10-08T11:43:48;22.30;1.00
41469;DHT22;27206;47.032;15.484;2023-10-08T11:46:20;22.30;1.00
41469;DHT22;27206;47.032;15.484;2023-10-08T11:48:46;22.50;1.00
41469;DHT22;27206;47.032;15.484;2023-10-08T11:51:12;22.50;1.00
41469;DHT22;27206;47.032;15.484;2023-10-08T11:53:43;22.50;1.00
41469;DHT22;27206;47.032;15.484;2023-10-08T11:56:11;22.60;1.00
41469;DHT22;27206;47.032;15.484;2023-10-08T11:58:40;22.70;1.00
41469;DHT22;27206;47.032;15.484;2023-10-08T12:01:06;22.60;1.00
41469;DHT22;27206;47.032;15.484;2023-10-08T12:03:31;22.60;1.00
41469;DHT22;27206;47.032;15.484;2023-10-08T12:06:00;22.70;1.00
41469;DHT22;27206;47.032;15.484;2023-10-08T12:08:26;22.90;1.00
41469;DHT22;27206;47.032;15.484;2023-10-08T12:10:53;22.90;1.00
41469;DHT22;27206;47.032;15.484;2023-10-08T12:13:20;23.00;1.00
41469;DHT22;27206;47.032;15.484;2023-10-08T12:15:56;23.10;1.00
41469;DHT22;27206;47.032;15.484;2023-10-08T12:18:34;23.10;1.00
41469;DHT22;27206;47.032;15.484;2023-10-08T12:21:08;23.30;1.00
41469;DHT22;27206;47.032;15.484;2023-10-08T12:23:36;23.20;1.00
41469;DHT22;27206;47.032;15.484;2023-10-08T12:26:03;23.10;1.00
41469;DHT22;27206;47.032;15.484;2023-10-08T12:28:29;23.20;1.00
41469;DHT22;27206;47.032;15.484;2023-10-08T12:30:55;23.20;1.00
41469;DHT22;27206;47.032;15.484;2023-10-08T12:33:26;23.20;1.00
41469;DHT22;27206;47.032;15.484;2023-10-08T12:35:52;23.20;1.00
41469;DHT22;27206;47.032;15.484;2023-10-08T12:38:24;23.10;1.00
41469;DHT22;27206;47.032;15.484;2023-10-08T12:40:54;23.30;1.00
41469;DHT22;27206;47.032;15.484;2023-10-08T12:43:24;23.40;1.00
41469;DHT22;27206;47.032;15.484;2023-10-08T12:45:52;23.50;1.00
41469;DHT22;27206;47.032;15.484;2023-10-08T12:48:27;23.40;1.00
41469;DHT22;27206;47.032;15.484;2023-10-08T12:50:53;23.40;1.00
41469;DHT22;27206;47.032;15.484;2023-10-08T12:53:31;23.30;1.00
41469;DHT22;27206;47.032;15.484;2023-10-08T12:56:00;23.20;1.00
41469;DHT22;27206;47.032;15.484;2023-10-08T12:58:35;23.10;1.00
41469;DHT22;27206;47.032;15.484;2023-10-08T13:01:13;23.10;1.00
41469;DHT22;27206;47.032;15.484;2023-10-08T13:03:40;23.00;1.00
41469;DHT22;27206;47.032;15.484;2023-10-08T13:06:13;23.00;1.00
41469;DHT22;27206;47.032;15.484;2023-10-08T13:08:54;22.90;1.00
41469;DHT22;27206;47.032;15.484;2023-10-08T13:11:21;22.90;1.00
41469;DHT22;27206;47.032;15.484;2023-10-08T13:13:51;22.80;1.00
41469;DHT22;27206;47.032;15.484;2023-10-08T13:16:18;22.70;1.00
41469;DHT22;27206;47.032;15.484;2023-10-08T13:18:43;22.60;2.60
41469;DHT22;27206;47.032;15.484;2023-10-08T13:21:10;22.60;10.20
41469;DHT22;27206;47.032;15.484;2023-10-08T13:23:36;22.60;17.40
41469;DHT22;27206;47.032;15.484;2023-10-08T13:26:02;22.50;13.20
41469;DHT22;27206;47.032;15.484;2023-10-08T13:28:33;22.60;1.00
41469;DHT22;27206;47.032;15.484;2023-10-08T13:31:00;22.70;3.60
41469;DHT22;27206;47.032;15.484;2023-10-08T13:33:25;23.00;17.40
41469;DHT22;27206;47.032;15.484;2023-10-08T13:35:52;23.20;29.00
41469;DHT22;27206;47.032;15.484;2023-10-08T13:38:20;23.50;29.80
41469;DHT22;27206;47.032;15.484;2023-10-08T13:40:49;24.00;23.90
41469;DHT22;27206;47.032;15.484;2023-10-08T13:43:34;24.00;1.00
41469;DHT22;27206;47.032;15.484;2023-10-08T13:46:05;23.80;1.00
41469;DHT22;27206;47.032;15.484;2023-10-08T13:48:32;23.90;1.00
41469;DHT22;27206;47.032;15.484;2023-10-08T13:51:00;23.70;1.00
41469;DHT22;27206;47.032;15.484;2023-10-08T13:53:26;23.50;1.00
41469;DHT22;27206;47.032;15.484;2023-10-08T13:56:02;23.40;1.00
41469;DHT22;27206;47.032;15.484;2023-10-08T13:58:30;23.30;1.00
41469;DHT22;27206;47.032;15.484;2023-10-08T14:00:58;23.30;1.00
41469;DHT22;27206;47.032;15.484;2023-10-08T14:03:29;23.20;1.00
41469;DHT22;27206;47.032;15.484;2023-10-08T14:06:00;23.10;1.00
41469;DHT22;27206;47.032;15.484;2023-10-08T14:08:30;23.00;1.00
41469;DHT22;27206;47.032;15.484;2023-10-08T14:10:57;23.00;1.00
41469;DHT22;27206;47.032;15.484;2023-10-08T14:13:30;22.90;7.60
41469;DHT22;27206;47.032;15.484;2023-10-08T14:15:57;22.90;16.50
41469;DHT22;27206;47.032;15.484;2023-10-08T14:18:24;22.80;28.40
41469;DHT22;27206;47.032;15.484;2023-10-08T14:20:54;22.80;34.80
41469;DHT22;27206;47.032;15.484;2023-10-08T14:23:22;22.70;24.00
41469;DHT22;27206;47.032;15.484;2023-10-08T14:25:49;22.70;27.50
41469;DHT22;27206;47.032;15.484;2023-10-08T14:28:20;22.60;35.80
41469;DHT22;27206;47.032;15.484;2023-10-08T14:31:01;22.40;48.70
41469;DHT22;27206;47.032;15.484;2023-10-08T14:33:28;22.20;52.80
41469;DHT22;27206;47.032;15.484;2023-10-08T14:35:57;22.20;60.30
41469;DHT22;27206;47.032;15.484;2023-10-08T14:38:41;22.10;64.90
41469;DHT22;27206;47.032;15.484;2023-10-08T14:41:25;21.80;72.30
41469;DHT22;27206;47.032;15.484;2023-10-08T14:44:09;21.30;30.00
41469;DHT22;27206;47.032;15.484;2023-10-08T14:46:36;20.70;8.60
41469;DHT22;27206;47.032;15.484;2023-10-08T14:49:03;20.20;7.10
41469;DHT22;27206;47.032;15.484;2023-10-08T14:51:29;19.80;14.80
41469;DHT22;27206;47.032;15.484;2023-10-08T14:53:56;19.40;20.40
41469;DHT22;27206;47.032;15.484;2023-10-08T14:56:22;19.10;23.20
41469;DHT22;27206;47.032;15.484;2023-10-08T14:58:49;18.90;27.70
41469;DHT22;27206;47.032;15.484;2023-10-08T15:01:14;18.80;34.30
41469;DHT22;27206;47.032;15.484;2023-10-08T15:03:40;18.40;38.80
41469;DHT22;27206;47.032;15.484;2023-10-08T15:06:06;18.30;44.70
41469;DHT22;27206;47.032;15.484;2023-10-08T15:08:33;18.10;43.20
41469;DHT22;27206;47.032;15.484;2023-10-08T15:10:59;18.00;53.10
41469;DHT22;27206;47.032;15.484;2023-10-08T15:13:25;17.90;55.60
41469;DHT22;27206;47.032;15.484;2023-10-08T15:15:52;17.90;55.40
41469;DHT22;27206;47.032;15.484;2023-10-08T15:18:19;17.80;55.00
41469;DHT22;27206;47.032;15.484;2023-10-08T15:20:46;17.60;56.40
41469;DHT22;27206;47.032;15.484;2023-10-08T15:23:12;17.60;55.40
41469;DHT22;27206;47.032;15.484;2023-10-08T15:25:38;17.40;58.00
41469;DHT22;27206;47.032;15.484;2023-10-08T15:28:05;17.40;60.30
41469;DHT22;27206;47.032;15.484;2023-10-08T15:30:31;17.40;60.90
41469;DHT22;27206;47.032;15.484;2023-10-08T15:32:58;17.30;62.30
41469;DHT22;27206;47.032;15.484;2023-10-08T15:35:23;17.30;55.80
41469;DHT22;27206;47.032;15.484;2023-10-08T15:37:50;17.20;54.60
41469;DHT22;27206;47.032;15.484;2023-10-08T15:40:16;17.20;53.50
41469;DHT22;27206;47.032;15.484;2023-10-08T15:42:50;17.10;51.30
41469;DHT22;27206;47.032;15.484;2023-10-08T15:45:17;17.10;54.90
41469;DHT22;27206;47.032;15.484;2023-10-08T15:47:43;16.90;60.60
41469;DHT22;27206;47.032;15.484;2023-10-08T15:50:09;16.80;60.90